CheckWX is a tool to help pilots better visualize weather data.  It is not intended as a substitute for an official pre-flight weather briefing.

06:43:31 UTC

LRTR TAF
Timişoara Traian Vuia Airport
Timişoara, Romania
TAF LRTR 160500Z 1606/1706 10008KT CAVOK PROB30 TEMPO 1615/1618 VRB25KT 3000 TSRA BKN045CB

Jun-16@
06:00 UTC

Jun-16 @ 06:00 UTC

Jun-17@
06:00 UTC

Jun-17 @ 06:00 UTC

TAF LRTR 160500Z 1606/1706 10008KT CAVOK
Wind
  • 100° at 8 KTS
Conditions
No significant weather
Cloud Levels
  • No significant clouds

Jun-16@
15:00 UTC

Jun-16 @ 15:00 UTC

Jun-16@
18:00 UTC

Jun-16 @ 18:00 UTC

PROB30 TEMPO 1615/1618 VRB25KT 3000 TSRA BKN045CB

Temporary - 30% Likelihood

Temporary - 30% Likelihood during this time.

Wind
  • Variable at 25 KTS
Conditions
Thunderstorm, Rain
Cloud Levels
  • Broken at 4,500' AGL